createdAt,value
2017-06-21T00:00:02.741Z,0
2017-06-21T00:05:03.155Z,0
2017-06-21T00:10:02.572Z,0
2017-06-21T00:15:03.072Z,0
2017-06-21T00:20:02.486Z,0
2017-06-21T00:25:02.988Z,0
2017-06-21T00:30:02.442Z,0
2017-06-21T00:35:02.845Z,0
2017-06-21T00:40:03.244Z,0
2017-06-21T00:45:02.535Z,0
2017-06-21T00:50:02.872Z,0
2017-06-21T00:55:03.319Z,0
2017-06-21T01:00:02.568Z,0
2017-06-21T01:05:03.084Z,0
2017-06-21T01:10:02.442Z,0
2017-06-21T01:15:03.058Z,0
2017-06-21T01:20:03.230Z,0
2017-06-21T01:25:03.212Z,0
2017-06-21T01:30:02.643Z,0
2017-06-21T01:35:02.975Z,0
2017-06-21T01:40:02.587Z,0
2017-06-21T01:45:02.955Z,0
2017-06-21T01:50:02.341Z,0
2017-06-21T01:55:02.805Z,0
2017-06-21T02:00:03.243Z,0
2017-06-21T02:05:02.687Z,0
2017-06-21T02:10:03.265Z,0
2017-06-21T02:15:02.650Z,0
2017-06-21T02:20:03.130Z,0
2017-06-21T02:25:02.502Z,1
2017-06-21T02:30:02.954Z,2
2017-06-21T02:35:02.428Z,5
2017-06-21T02:40:02.981Z,10
2017-06-21T02:45:02.482Z,18
2017-06-21T02:50:02.922Z,40
2017-06-21T02:55:02.380Z,52
2017-06-21T03:00:02.680Z,61
2017-06-21T03:05:03.080Z,73
2017-06-21T03:10:02.476Z,94
2017-06-21T03:15:02.946Z,125
2017-06-21T03:20:02.379Z,223
2017-06-21T03:25:02.719Z,352
2017-06-21T03:30:03.010Z,482
2017-06-21T03:35:02.514Z,716
2017-06-21T03:40:02.970Z,866
2017-06-21T03:45:03.327Z,982
2017-06-21T03:50:02.808Z,1000
2017-06-21T03:55:03.179Z,1000
2017-06-21T04:00:02.636Z,2000
2017-06-21T04:05:03.041Z,3000
2017-06-21T04:10:02.556Z,4000
2017-06-21T04:15:03.018Z,2000
2017-06-21T04:20:02.377Z,2000
2017-06-21T04:25:03.311Z,2000
2017-06-21T04:30:02.958Z,2000
2017-06-21T04:35:03.330Z,3000
2017-06-21T04:40:02.663Z,3000
2017-06-21T04:45:03.097Z,3000
2017-06-21T04:50:02.517Z,3000
2017-06-21T04:55:02.811Z,3000
2017-06-21T05:00:03.341Z,3000
2017-06-21T05:05:02.627Z,3000
2017-06-21T05:10:03.114Z,3000
2017-06-21T05:15:02.592Z,2000
2017-06-21T05:20:02.887Z,2000
2017-06-21T05:25:02.338Z,3000
2017-06-21T05:30:02.764Z,3000
2017-06-21T05:35:03.271Z,3000
2017-06-21T05:40:02.687Z,3000
2017-06-21T05:45:03.143Z,3000
2017-06-21T05:50:02.604Z,3000
2017-06-21T05:55:03.010Z,3000
2017-06-21T06:00:03.329Z,3000
2017-06-21T06:05:02.648Z,3000
2017-06-21T06:10:03.145Z,3000
2017-06-21T06:15:02.443Z,3000
2017-06-21T06:20:02.721Z,3000
2017-06-21T06:25:03.045Z,3000
2017-06-21T06:30:02.563Z,3000
2017-06-21T06:35:03.065Z,3000
2017-06-21T06:40:02.442Z,4000
2017-06-21T06:45:02.733Z,4000
2017-06-21T06:50:03.214Z,4000
2017-06-21T06:55:02.617Z,4000
2017-06-21T07:00:03.030Z,4000
2017-06-21T07:05:02.545Z,4000
2017-06-21T07:10:03.143Z,4000
2017-06-21T07:15:02.622Z,5000
2017-06-21T07:20:02.981Z,5000
2017-06-21T07:25:02.452Z,6000
2017-06-21T07:30:02.842Z,13000
2017-06-21T07:35:03.296Z,33000
2017-06-21T07:40:02.817Z,32000
2017-06-21T07:45:03.199Z,35000
2017-06-21T07:50:02.508Z,34000
2017-06-21T07:55:03.001Z,34000
2017-06-21T08:00:02.512Z,38000
2017-06-21T08:05:02.790Z,36000
2017-06-21T08:10:03.261Z,35000
2017-06-21T08:15:02.622Z,36000
2017-06-21T08:20:02.957Z,41000
2017-06-21T08:25:02.373Z,41000
2017-06-21T08:30:02.700Z,42000
2017-06-21T08:35:03.181Z,36000
2017-06-21T08:40:02.636Z,42000
2017-06-21T08:45:03.055Z,46000
2017-06-21T08:50:02.613Z,48000
2017-06-21T08:55:02.428Z,40000
2017-06-21T09:00:02.814Z,46000
2017-06-21T09:05:02.394Z,45000
2017-06-21T09:10:02.763Z,50000
2017-06-21T09:15:03.106Z,46000
2017-06-21T09:20:02.449Z,45000
2017-06-21T09:25:02.936Z,46000
2017-06-21T09:30:03.227Z,45000
2017-06-21T09:35:02.493Z,47000
2017-06-21T09:40:03.326Z,52000
2017-06-21T09:45:02.428Z,43000
2017-06-21T09:50:02.460Z,51000
2017-06-21T09:55:03.258Z,51000
2017-06-21T10:00:02.844Z,50000
2017-06-21T10:05:03.249Z,49000
2017-06-21T10:10:02.427Z,49000
2017-06-21T10:15:02.578Z,49000
2017-06-21T10:20:02.412Z,39000
2017-06-21T10:25:03.310Z,40000
2017-06-21T10:30:02.583Z,22000
2017-06-21T10:35:03.215Z,38000
2017-06-21T10:40:03.023Z,34000
2017-06-21T10:45:02.442Z,34000
2017-06-21T10:50:02.834Z,38000
2017-06-21T10:55:03.064Z,39000
2017-06-21T11:00:02.359Z,35000
2017-06-21T11:05:02.749Z,35000
2017-06-21T11:10:02.503Z,43000
2017-06-21T11:15:03.041Z,37000
2017-06-21T11:20:03.081Z,42000
2017-06-21T11:25:02.360Z,36000
2017-06-21T11:30:03.152Z,33000
2017-06-21T11:35:02.499Z,41000
2017-06-21T11:40:02.658Z,34000
2017-06-21T11:45:02.587Z,37000
2017-06-21T11:50:02.778Z,36000
2017-06-21T11:55:02.766Z,37000
2017-06-21T12:00:02.958Z,37000
2017-06-21T12:05:02.896Z,44000
2017-06-21T12:10:03.217Z,46000
2017-06-21T12:15:02.614Z,45000
2017-06-21T12:20:03.333Z,40000
2017-06-21T12:25:02.703Z,38000
2017-06-21T12:30:03.107Z,44000
2017-06-21T12:35:02.920Z,42000
2017-06-21T12:40:03.239Z,34000
2017-06-21T12:45:03.076Z,36000
2017-06-21T12:50:02.952Z,34000
2017-06-21T12:55:02.639Z,31000
2017-06-21T13:00:02.371Z,33000
2017-06-21T13:05:02.452Z,36000
2017-06-21T13:10:03.180Z,33000
2017-06-21T13:15:02.512Z,38000
2017-06-21T13:20:02.781Z,39000
2017-06-21T13:25:03.165Z,34000
2017-06-21T13:30:02.482Z,34000
2017-06-21T13:35:02.515Z,35000
2017-06-21T13:40:02.394Z,32000
2017-06-21T13:45:02.720Z,30000
2017-06-21T13:50:02.852Z,30000
2017-06-21T13:55:03.106Z,31000
2017-06-21T14:00:03.162Z,30000
2017-06-21T14:05:02.669Z,31000
2017-06-21T14:10:03.161Z,28000
2017-06-21T14:15:02.402Z,28000
2017-06-21T14:20:02.519Z,30000
2017-06-21T14:25:02.820Z,29000
2017-06-21T14:30:02.392Z,29000
2017-06-21T14:35:02.484Z,29000
2017-06-21T14:40:02.739Z,28000
2017-06-21T14:45:02.977Z,28000
2017-06-21T14:50:03.305Z,26000
2017-06-21T14:55:02.773Z,26000
2017-06-21T15:00:03.130Z,25000
2017-06-21T15:05:02.834Z,25000
2017-06-21T15:10:02.444Z,23000
2017-06-21T15:15:02.715Z,21000
2017-06-21T15:20:03.101Z,22000
2017-06-21T15:25:02.426Z,21000
2017-06-21T15:30:02.719Z,20000
2017-06-21T15:35:02.465Z,19000
2017-06-21T15:40:02.668Z,18000
2017-06-21T15:45:02.916Z,18000
2017-06-21T15:50:02.757Z,17000
2017-06-21T15:55:02.979Z,16000
2017-06-21T16:00:03.039Z,16000
2017-06-21T16:05:02.716Z,17000
2017-06-21T16:10:02.523Z,17000
2017-06-21T16:15:03.139Z,16000
2017-06-21T16:20:02.304Z,16000
2017-06-21T16:25:03.274Z,14000
2017-06-21T16:30:02.821Z,12000
2017-06-21T16:35:03.168Z,11000
2017-06-21T16:40:02.408Z,13000
2017-06-21T16:45:03.298Z,13000
2017-06-21T16:50:02.416Z,12000
2017-06-21T16:55:02.938Z,12000
2017-06-21T17:00:03.187Z,11000
2017-06-21T17:05:02.791Z,11000
2017-06-21T17:10:02.891Z,10000
2017-06-21T17:15:02.676Z,9000
2017-06-21T17:20:02.932Z,9000
2017-06-21T17:25:02.671Z,7000
2017-06-21T17:30:02.742Z,8000
2017-06-21T17:35:03.043Z,6000
2017-06-21T17:40:03.048Z,7000
2017-06-21T17:45:03.353Z,7000
2017-06-21T17:50:03.195Z,4000
2017-06-21T17:55:02.777Z,3000
2017-06-21T18:00:02.715Z,5000
2017-06-21T18:05:02.877Z,4000
2017-06-21T18:10:03.194Z,4000
2017-06-21T18:15:03.223Z,5000
2017-06-21T18:20:02.372Z,4000
2017-06-21T18:25:02.705Z,3000
2017-06-21T18:30:02.447Z,3000
2017-06-21T18:35:02.666Z,2000
2017-06-21T18:40:02.587Z,2000
2017-06-21T18:45:02.675Z,1000
2017-06-21T18:50:02.630Z,2000
2017-06-21T18:55:02.718Z,2000
2017-06-21T19:00:03.075Z,1000
2017-06-21T19:05:02.703Z,1000
2017-06-21T19:10:03.236Z,1000
2017-06-21T19:15:02.555Z,1000
2017-06-21T19:20:03.201Z,1000
2017-06-21T19:25:02.550Z,993
2017-06-21T19:30:02.324Z,754
2017-06-21T19:35:02.794Z,646
2017-06-21T19:40:02.793Z,556
2017-06-21T19:45:02.453Z,452
2017-06-21T19:50:03.100Z,324
2017-06-21T19:55:02.746Z,194
2017-06-21T20:00:02.771Z,116
2017-06-21T20:05:02.662Z,58
2017-06-21T20:10:02.877Z,42
2017-06-21T20:15:02.787Z,31
2017-06-21T20:20:02.718Z,21
2017-06-21T20:25:02.620Z,12
2017-06-21T20:30:03.045Z,6
2017-06-21T20:35:03.218Z,3
2017-06-21T20:40:03.155Z,2
2017-06-21T20:45:03.274Z,1
2017-06-21T20:50:03.072Z,0
2017-06-21T20:55:03.081Z,0
2017-06-21T21:00:02.899Z,0
2017-06-21T21:05:02.330Z,0
2017-06-21T21:10:02.970Z,0
2017-06-21T21:15:02.360Z,0
2017-06-21T21:20:02.715Z,0
2017-06-21T21:25:03.027Z,0
2017-06-21T21:30:02.450Z,0
2017-06-21T21:35:02.833Z,0
2017-06-21T21:40:03.311Z,0
2017-06-21T21:45:02.657Z,0
2017-06-21T21:50:03.009Z,0
2017-06-21T21:55:02.388Z,0
2017-06-21T22:00:02.881Z,0
2017-06-21T22:05:02.316Z,0
2017-06-21T22:10:02.845Z,0
2017-06-21T22:15:03.172Z,0
2017-06-21T22:20:02.506Z,0
2017-06-21T22:25:02.893Z,0
2017-06-21T22:30:03.231Z,0
2017-06-21T22:35:02.652Z,0
2017-06-21T22:40:03.177Z,0
2017-06-21T22:45:02.580Z,0
2017-06-21T22:50:03.236Z,0
2017-06-21T22:55:02.513Z,0
2017-06-21T23:00:02.870Z,0
2017-06-21T23:05:02.789Z,0
2017-06-21T23:10:03.181Z,0
2017-06-21T23:15:02.513Z,0
2017-06-21T23:20:03.010Z,0
2017-06-21T23:25:02.528Z,0
2017-06-21T23:30:02.817Z,0
2017-06-21T23:35:03.227Z,0
2017-06-21T23:40:02.707Z,0
2017-06-21T23:45:03.110Z,0
2017-06-21T23:50:02.468Z,0
2017-06-21T23:55:02.856Z,0
